Terminal Aerodrome Forecast
Issued by NWS

Home | Current Version | Previous Version | Graphics & Text | Print | Product List | Glossary On
Versions: 1 2 3 4 5 6 7 8 9 10 11 12 13 14 15 16 17 18 19 20 21 22 23 24 25 26 27 28 29
000
FTUS43 KGRB 240500 AAA
TAFAUW
TAF AMD
KAUW 240524Z 2405/2506 22004KT 1SM BR OVC003
     FM240900 VRB03KT 1/2SM FG VV002
     FM241300 19003KT 1SM BR BKN003
     FM241500 19004KT 3SM BR SCT005 BKN012
     FM241800 20004KT P6SM SCT020
     FM250300 18003KT 5SM BR BKN120=

USA.gov is the U.S. government's official web portal to all federal, state and local government web resources and services.